Terminal Aerodrome Forecast
Issued by NWS

Home | Current Version | Previous Version | Text Only | Print | Product List | Glossary On
Versions: 1 2 3 4 5 6 7 8 9 10 11 12 13 14 15
803
FTUS43 KICT 241120
TAFSLN
TAF
KSLN 241120Z 2412/2512 32020G28KT P6SM OVC015
     FM242100 34020G28KT P6SM BKN035
     FM250200 33015KT P6SM SCT035=

USA.gov is the U.S. government's official web portal to all federal, state and local government web resources and services.